sensor_id;sensor_type;location;lat;lon;timestamp;temperature;humidity
37874;DHT22;23709;48.078;11.684;2023-08-21T00:02:26;20.40;99.90
37874;DHT22;23709;48.078;11.684;2023-08-21T00:05:00;20.40;99.90
37874;DHT22;23709;48.078;11.684;2023-08-21T00:07:32;20.30;99.90
37874;DHT22;23709;48.078;11.684;2023-08-21T00:10:05;20.30;99.90
37874;DHT22;23709;48.078;11.684;2023-08-21T00:12:37;20.30;99.90
37874;DHT22;23709;48.078;11.684;2023-08-21T00:15:10;20.20;99.90
37874;DHT22;23709;48.078;11.684;2023-08-21T00:17:42;20.20;99.90
37874;DHT22;23709;48.078;11.684;2023-08-21T00:20:15;20.50;99.90
37874;DHT22;23709;48.078;11.684;2023-08-21T00:22:47;20.50;99.90
37874;DHT22;23709;48.078;11.684;2023-08-21T00:25:21;20.60;99.90
37874;DHT22;23709;48.078;11.684;2023-08-21T00:27:54;20.60;99.90
37874;DHT22;23709;48.078;11.684;2023-08-21T00:30:26;20.60;99.90
37874;DHT22;23709;48.078;11.684;2023-08-21T00:32:58;20.60;99.90
37874;DHT22;23709;48.078;11.684;2023-08-21T00:35:31;20.50;99.90
37874;DHT22;23709;48.078;11.684;2023-08-21T00:38:03;20.50;99.90
37874;DHT22;23709;48.078;11.684;2023-08-21T00:40:35;20.40;99.90
37874;DHT22;23709;48.078;11.684;2023-08-21T00:43:07;20.30;99.90
37874;DHT22;23709;48.078;11.684;2023-08-21T00:45:42;20.20;99.90
37874;DHT22;23709;48.078;11.684;2023-08-21T00:48:15;20.10;99.90
37874;DHT22;23709;48.078;11.684;2023-08-21T00:50:48;20.00;99.90
37874;DHT22;23709;48.078;11.684;2023-08-21T00:53:21;20.10;99.90
37874;DHT22;23709;48.078;11.684;2023-08-21T00:55:53;20.20;99.90
37874;DHT22;23709;48.078;11.684;2023-08-21T00:58:26;20.30;99.90
37874;DHT22;23709;48.078;11.684;2023-08-21T01:00:58;20.30;99.90
37874;DHT22;23709;48.078;11.684;2023-08-21T01:03:31;20.00;99.90
37874;DHT22;23709;48.078;11.684;2023-08-21T01:06:03;19.90;99.90
37874;DHT22;23709;48.078;11.684;2023-08-21T01:08:49;19.80;99.90
37874;DHT22;23709;48.078;11.684;2023-08-21T01:11:49;19.90;99.90
37874;DHT22;23709;48.078;11.684;2023-08-21T01:14:33;19.90;99.90
37874;DHT22;23709;48.078;11.684;2023-08-21T01:17:09;19.90;99.90
37874;DHT22;23709;48.078;11.684;2023-08-21T01:19:48;19.90;99.90
37874;DHT22;23709;48.078;11.684;2023-08-21T01:22:38;19.90;99.90
37874;DHT22;23709;48.078;11.684;2023-08-21T01:25:12;19.90;99.90
37874;DHT22;23709;48.078;11.684;2023-08-21T01:27:48;19.90;99.90
37874;DHT22;23709;48.078;11.684;2023-08-21T01:30:22;19.90;99.90
37874;DHT22;23709;48.078;11.684;2023-08-21T01:35:30;19.90;99.90
37874;DHT22;23709;48.078;11.684;2023-08-21T01:38:03;19.80;99.90
37874;DHT22;23709;48.078;11.684;2023-08-21T01:40:36;19.70;99.90
37874;DHT22;23709;48.078;11.684;2023-08-21T01:43:09;19.70;99.90
37874;DHT22;23709;48.078;11.684;2023-08-21T01:45:41;19.70;99.90
37874;DHT22;23709;48.078;11.684;2023-08-21T01:48:15;19.70;99.90
37874;DHT22;23709;48.078;11.684;2023-08-21T01:50:47;19.60;99.90
37874;DHT22;23709;48.078;11.684;2023-08-21T01:53:20;19.60;99.90
37874;DHT22;23709;48.078;11.684;2023-08-21T01:55:52;19.60;99.90
37874;DHT22;23709;48.078;11.684;2023-08-21T01:58:25;19.50;99.90
37874;DHT22;23709;48.078;11.684;2023-08-21T02:00:57;19.40;99.90
37874;DHT22;23709;48.078;11.684;2023-08-21T02:03:29;19.40;99.90
37874;DHT22;23709;48.078;11.684;2023-08-21T02:06:02;19.30;99.90
37874;DHT22;23709;48.078;11.684;2023-08-21T02:08:37;19.40;99.90
37874;DHT22;23709;48.078;11.684;2023-08-21T02:11:10;19.40;99.90
37874;DHT22;23709;48.078;11.684;2023-08-21T02:13:42;19.40;99.90
37874;DHT22;23709;48.078;11.684;2023-08-21T02:16:14;19.30;99.90
37874;DHT22;23709;48.078;11.684;2023-08-21T02:18:46;19.20;99.90
37874;DHT22;23709;48.078;11.684;2023-08-21T02:21:18;19.20;99.90
37874;DHT22;23709;48.078;11.684;2023-08-21T02:23:51;19.20;99.90
37874;DHT22;23709;48.078;11.684;2023-08-21T02:26:23;19.20;99.90
37874;DHT22;23709;48.078;11.684;2023-08-21T02:28:55;19.20;99.90
37874;DHT22;23709;48.078;11.684;2023-08-21T02:31:27;19.20;99.90
37874;DHT22;23709;48.078;11.684;2023-08-21T02:34:00;19.10;99.90
37874;DHT22;23709;48.078;11.684;2023-08-21T02:36:32;19.10;99.90
37874;DHT22;23709;48.078;11.684;2023-08-21T02:39:04;19.10;99.90
37874;DHT22;23709;48.078;11.684;2023-08-21T02:41:37;19.00;99.90
37874;DHT22;23709;48.078;11.684;2023-08-21T02:44:09;19.00;99.90
37874;DHT22;23709;48.078;11.684;2023-08-21T02:46:42;19.00;99.90
37874;DHT22;23709;48.078;11.684;2023-08-21T02:49:14;19.00;99.90
37874;DHT22;23709;48.078;11.684;2023-08-21T02:51:46;19.10;99.90
37874;DHT22;23709;48.078;11.684;2023-08-21T02:54:18;19.00;99.90
37874;DHT22;23709;48.078;11.684;2023-08-21T02:56:51;19.00;99.90
37874;DHT22;23709;48.078;11.684;2023-08-21T02:59:23;18.90;99.90
37874;DHT22;23709;48.078;11.684;2023-08-21T03:01:56;18.90;99.90
37874;DHT22;23709;48.078;11.684;2023-08-21T03:04:28;18.90;99.90
37874;DHT22;23709;48.078;11.684;2023-08-21T03:07:00;18.90;99.90
37874;DHT22;23709;48.078;11.684;2023-08-21T03:09:33;18.80;99.90
37874;DHT22;23709;48.078;11.684;2023-08-21T03:12:05;18.80;99.90
37874;DHT22;23709;48.078;11.684;2023-08-21T03:14:39;18.70;99.90
37874;DHT22;23709;48.078;11.684;2023-08-21T03:17:11;18.60;99.90
37874;DHT22;23709;48.078;11.684;2023-08-21T03:19:43;18.50;99.90
37874;DHT22;23709;48.078;11.684;2023-08-21T03:22:16;18.60;99.90
37874;DHT22;23709;48.078;11.684;2023-08-21T03:24:49;18.50;99.90
37874;DHT22;23709;48.078;11.684;2023-08-21T03:27:22;18.50;99.90
37874;DHT22;23709;48.078;11.684;2023-08-21T03:29:55;18.50;99.90
37874;DHT22;23709;48.078;11.684;2023-08-21T03:32:27;18.50;99.90
37874;DHT22;23709;48.078;11.684;2023-08-21T03:35:00;18.60;99.90
37874;DHT22;23709;48.078;11.684;2023-08-21T03:37:32;18.60;99.90
37874;DHT22;23709;48.078;11.684;2023-08-21T03:40:05;18.50;99.90
37874;DHT22;23709;48.078;11.684;2023-08-21T03:42:38;18.50;99.90
37874;DHT22;23709;48.078;11.684;2023-08-21T03:45:11;18.50;99.90
37874;DHT22;23709;48.078;11.684;2023-08-21T03:47:43;18.40;99.90
37874;DHT22;23709;48.078;11.684;2023-08-21T03:50:21;18.30;99.90
37874;DHT22;23709;48.078;11.684;2023-08-21T03:52:54;18.30;99.90
37874;DHT22;23709;48.078;11.684;2023-08-21T03:55:27;18.30;99.90
37874;DHT22;23709;48.078;11.684;2023-08-21T03:58:00;18.20;99.90
37874;DHT22;23709;48.078;11.684;2023-08-21T04:00:32;18.30;99.90
37874;DHT22;23709;48.078;11.684;2023-08-21T04:03:05;18.20;99.90
37874;DHT22;23709;48.078;11.684;2023-08-21T04:05:37;18.20;99.90
37874;DHT22;23709;48.078;11.684;2023-08-21T04:08:09;18.10;99.90
37874;DHT22;23709;48.078;11.684;2023-08-21T04:10:42;18.00;99.90
37874;DHT22;23709;48.078;11.684;2023-08-21T04:13:14;18.00;99.90
37874;DHT22;23709;48.078;11.684;2023-08-21T04:15:48;17.90;99.90
37874;DHT22;23709;48.078;11.684;2023-08-21T04:18:21;17.90;99.90
37874;DHT22;23709;48.078;11.684;2023-08-21T04:21:11;17.90;99.90
37874;DHT22;23709;48.078;11.684;2023-08-21T04:23:44;17.90;99.90
37874;DHT22;23709;48.078;11.684;2023-08-21T04:26:17;17.90;99.90
37874;DHT22;23709;48.078;11.684;2023-08-21T04:28:49;17.90;99.90
37874;DHT22;23709;48.078;11.684;2023-08-21T04:31:22;18.00;99.90
37874;DHT22;23709;48.078;11.684;2023-08-21T04:33:54;17.90;99.90
37874;DHT22;23709;48.078;11.684;2023-08-21T04:36:26;17.90;99.90
37874;DHT22;23709;48.078;11.684;2023-08-21T04:38:59;18.00;99.90
37874;DHT22;23709;48.078;11.684;2023-08-21T04:41:31;18.00;99.90
37874;DHT22;23709;48.078;11.684;2023-08-21T04:44:04;18.10;99.90
37874;DHT22;23709;48.078;11.684;2023-08-21T04:46:36;18.00;99.90
37874;DHT22;23709;48.078;11.684;2023-08-21T04:49:09;18.10;99.90
37874;DHT22;23709;48.078;11.684;2023-08-21T04:51:41;18.10;99.90
37874;DHT22;23709;48.078;11.684;2023-08-21T04:54:15;18.30;99.90
37874;DHT22;23709;48.078;11.684;2023-08-21T04:56:48;18.40;99.90
37874;DHT22;23709;48.078;11.684;2023-08-21T04:59:21;18.50;99.90
37874;DHT22;23709;48.078;11.684;2023-08-21T05:01:54;18.60;99.90
37874;DHT22;23709;48.078;11.684;2023-08-21T05:04:26;18.70;99.90
37874;DHT22;23709;48.078;11.684;2023-08-21T05:07:00;18.60;99.90
37874;DHT22;23709;48.078;11.684;2023-08-21T05:09:32;18.70;99.90
37874;DHT22;23709;48.078;11.684;2023-08-21T05:12:07;18.60;99.90
37874;DHT22;23709;48.078;11.684;2023-08-21T05:14:39;18.60;99.90
37874;DHT22;23709;48.078;11.684;2023-08-21T05:17:11;18.60;99.90
37874;DHT22;23709;48.078;11.684;2023-08-21T05:19:44;18.60;99.90
37874;DHT22;23709;48.078;11.684;2023-08-21T05:22:16;18.70;99.90
37874;DHT22;23709;48.078;11.684;2023-08-21T05:24:49;18.90;99.90
37874;DHT22;23709;48.078;11.684;2023-08-21T05:27:22;19.00;99.90
37874;DHT22;23709;48.078;11.684;2023-08-21T05:29:54;19.00;99.90
37874;DHT22;23709;48.078;11.684;2023-08-21T05:32:26;19.00;99.90
37874;DHT22;23709;48.078;11.684;2023-08-21T05:34:59;19.10;99.90
37874;DHT22;23709;48.078;11.684;2023-08-21T05:37:36;19.20;99.90
37874;DHT22;23709;48.078;11.684;2023-08-21T05:40:09;19.40;99.90
37874;DHT22;23709;48.078;11.684;2023-08-21T05:42:42;19.50;99.90
37874;DHT22;23709;48.078;11.684;2023-08-21T05:45:14;19.70;99.90
37874;DHT22;23709;48.078;11.684;2023-08-21T05:47:46;19.70;99.90
37874;DHT22;23709;48.078;11.684;2023-08-21T05:50:18;19.80;99.90
37874;DHT22;23709;48.078;11.684;2023-08-21T05:52:51;20.00;99.90
37874;DHT22;23709;48.078;11.684;2023-08-21T05:55:23;20.00;99.90
37874;DHT22;23709;48.078;11.684;2023-08-21T05:57:55;20.20;99.90
37874;DHT22;23709;48.078;11.684;2023-08-21T06:00:28;20.30;99.90
37874;DHT22;23709;48.078;11.684;2023-08-21T06:03:05;20.30;99.90
37874;DHT22;23709;48.078;11.684;2023-08-21T06:06:13;20.50;99.90
37874;DHT22;23709;48.078;11.684;2023-08-21T06:08:45;20.60;99.90
37874;DHT22;23709;48.078;11.684;2023-08-21T06:11:18;20.80;99.90
37874;DHT22;23709;48.078;11.684;2023-08-21T06:13:50;20.90;99.90
37874;DHT22;23709;48.078;11.684;2023-08-21T06:16:23;21.10;99.90
37874;DHT22;23709;48.078;11.684;2023-08-21T06:18:55;21.20;99.90
37874;DHT22;23709;48.078;11.684;2023-08-21T06:21:27;21.40;99.90
37874;DHT22;23709;48.078;11.684;2023-08-21T06:24:00;21.50;99.90
37874;DHT22;23709;48.078;11.684;2023-08-21T06:26:32;21.70;99.90
37874;DHT22;23709;48.078;11.684;2023-08-21T06:29:04;21.80;99.90
37874;DHT22;23709;48.078;11.684;2023-08-21T06:31:37;22.00;99.90
37874;DHT22;23709;48.078;11.684;2023-08-21T06:34:09;22.10;99.90
37874;DHT22;23709;48.078;11.684;2023-08-21T06:36:41;22.30;99.90
37874;DHT22;23709;48.078;11.684;2023-08-21T06:39:14;22.50;99.90
37874;DHT22;23709;48.078;11.684;2023-08-21T06:41:46;22.60;99.90
37874;DHT22;23709;48.078;11.684;2023-08-21T06:44:23;22.70;99.90
37874;DHT22;23709;48.078;11.684;2023-08-21T06:46:55;22.80;99.90
37874;DHT22;23709;48.078;11.684;2023-08-21T06:49:27;23.00;99.90
37874;DHT22;23709;48.078;11.684;2023-08-21T06:51:59;23.10;99.90
37874;DHT22;23709;48.078;11.684;2023-08-21T06:54:32;23.20;99.90
37874;DHT22;23709;48.078;11.684;2023-08-21T06:57:04;23.20;99.90
37874;DHT22;23709;48.078;11.684;2023-08-21T06:59:37;23.30;99.90
37874;DHT22;23709;48.078;11.684;2023-08-21T07:02:12;23.50;99.90
37874;DHT22;23709;48.078;11.684;2023-08-21T07:04:47;23.60;99.90
37874;DHT22;23709;48.078;11.684;2023-08-21T07:07:19;23.70;99.90
37874;DHT22;23709;48.078;11.684;2023-08-21T07:09:51;23.80;99.90
37874;DHT22;23709;48.078;11.684;2023-08-21T07:12:24;23.90;99.90
37874;DHT22;23709;48.078;11.684;2023-08-21T07:14:56;24.10;99.90
37874;DHT22;23709;48.078;11.684;2023-08-21T07:17:28;24.20;99.90
37874;DHT22;23709;48.078;11.684;2023-08-21T07:20:01;24.40;99.90
37874;DHT22;23709;48.078;11.684;2023-08-21T07:22:33;24.50;99.90
37874;DHT22;23709;48.078;11.684;2023-08-21T07:25:06;24.60;99.90
37874;DHT22;23709;48.078;11.684;2023-08-21T07:27:38;24.70;99.90
37874;DHT22;23709;48.078;11.684;2023-08-21T07:30:11;24.80;99.90
37874;DHT22;23709;48.078;11.684;2023-08-21T07:32:43;25.00;99.90
37874;DHT22;23709;48.078;11.684;2023-08-21T07:35:16;25.10;99.90
37874;DHT22;23709;48.078;11.684;2023-08-21T07:37:48;25.20;99.90
37874;DHT22;23709;48.078;11.684;2023-08-21T07:40:21;25.30;99.90
37874;DHT22;23709;48.078;11.684;2023-08-21T07:42:53;25.40;99.90
37874;DHT22;23709;48.078;11.684;2023-08-21T07:45:25;25.50;99.90
37874;DHT22;23709;48.078;11.684;2023-08-21T07:47:58;25.70;99.90
37874;DHT22;23709;48.078;11.684;2023-08-21T07:50:51;25.70;99.90
37874;DHT22;23709;48.078;11.684;2023-08-21T07:53:25;25.90;99.90
37874;DHT22;23709;48.078;11.684;2023-08-21T07:55:58;26.00;99.90
37874;DHT22;23709;48.078;11.684;2023-08-21T07:58:31;26.20;99.90
37874;DHT22;23709;48.078;11.684;2023-08-21T08:01:03;26.30;99.90
37874;DHT22;23709;48.078;11.684;2023-08-21T08:03:37;26.50;99.60
37874;DHT22;23709;48.078;11.684;2023-08-21T08:06:10;26.60;99.20
37874;DHT22;23709;48.078;11.684;2023-08-21T08:08:42;26.70;99.00
37874;DHT22;23709;48.078;11.684;2023-08-21T08:11:14;26.70;99.00
37874;DHT22;23709;48.078;11.684;2023-08-21T08:13:47;26.80;98.80
37874;DHT22;23709;48.078;11.684;2023-08-21T08:16:19;26.90;98.60
37874;DHT22;23709;48.078;11.684;2023-08-21T08:18:51;27.00;98.60
37874;DHT22;23709;48.078;11.684;2023-08-21T08:21:24;27.00;98.40
37874;DHT22;23709;48.078;11.684;2023-08-21T08:23:56;27.10;97.80
37874;DHT22;23709;48.078;11.684;2023-08-21T08:26:29;27.20;98.20
37874;DHT22;23709;48.078;11.684;2023-08-21T08:29:01;27.40;98.10
37874;DHT22;23709;48.078;11.684;2023-08-21T08:31:34;27.50;97.70
37874;DHT22;23709;48.078;11.684;2023-08-21T08:34:06;27.60;97.70
37874;DHT22;23709;48.078;11.684;2023-08-21T08:36:38;27.50;96.50
37874;DHT22;23709;48.078;11.684;2023-08-21T08:39:13;27.60;97.00
37874;DHT22;23709;48.078;11.684;2023-08-21T08:42:00;27.60;96.00
37874;DHT22;23709;48.078;11.684;2023-08-21T08:44:35;27.70;95.60
37874;DHT22;23709;48.078;11.684;2023-08-21T08:47:10;27.70;94.90
37874;DHT22;23709;48.078;11.684;2023-08-21T08:49:43;27.70;95.20
37874;DHT22;23709;48.078;11.684;2023-08-21T08:52:16;27.80;95.30
37874;DHT22;23709;48.078;11.684;2023-08-21T08:54:49;27.90;95.20
37874;DHT22;23709;48.078;11.684;2023-08-21T08:57:21;28.00;94.80
37874;DHT22;23709;48.078;11.684;2023-08-21T08:59:54;28.10;94.90
37874;DHT22;23709;48.078;11.684;2023-08-21T09:02:26;28.10;94.10
37874;DHT22;23709;48.078;11.684;2023-08-21T09:04:58;28.20;94.10
37874;DHT22;23709;48.078;11.684;2023-08-21T09:07:31;28.20;93.60
37874;DHT22;23709;48.078;11.684;2023-08-21T09:10:03;28.20;93.70
37874;DHT22;23709;48.078;11.684;2023-08-21T09:12:37;28.30;93.20
37874;DHT22;23709;48.078;11.684;2023-08-21T09:15:13;28.50;93.80
37874;DHT22;23709;48.078;11.684;2023-08-21T09:17:53;28.40;93.10
37874;DHT22;23709;48.078;11.684;2023-08-21T09:20:25;28.40;92.40
37874;DHT22;23709;48.078;11.684;2023-08-21T09:22:58;28.40;92.50
37874;DHT22;23709;48.078;11.684;2023-08-21T09:25:34;28.40;92.20
37874;DHT22;23709;48.078;11.684;2023-08-21T09:28:08;28.50;92.80
37874;DHT22;23709;48.078;11.684;2023-08-21T09:33:22;28.60;91.90
37874;DHT22;23709;48.078;11.684;2023-08-21T09:35:55;28.60;91.70
37874;DHT22;23709;48.078;11.684;2023-08-21T09:38:27;28.60;90.80
37874;DHT22;23709;48.078;11.684;2023-08-21T09:41:00;28.70;91.20
37874;DHT22;23709;48.078;11.684;2023-08-21T09:43:41;28.90;90.20
37874;DHT22;23709;48.078;11.684;2023-08-21T09:46:23;28.90;88.40
37874;DHT22;23709;48.078;11.684;2023-08-21T09:49:00;28.90;87.90
37874;DHT22;23709;48.078;11.684;2023-08-21T09:51:32;29.00;89.50
37874;DHT22;23709;48.078;11.684;2023-08-21T09:54:05;29.10;88.70
37874;DHT22;23709;48.078;11.684;2023-08-21T09:56:38;29.20;87.10
37874;DHT22;23709;48.078;11.684;2023-08-21T09:59:10;29.20;85.70
37874;DHT22;23709;48.078;11.684;2023-08-21T10:01:44;29.30;84.60
37874;DHT22;23709;48.078;11.684;2023-08-21T10:04:18;29.40;80.20
37874;DHT22;23709;48.078;11.684;2023-08-21T10:06:54;29.40;81.00
37874;DHT22;23709;48.078;11.684;2023-08-21T10:09:28;29.50;81.80
37874;DHT22;23709;48.078;11.684;2023-08-21T10:12:02;29.50;81.50
37874;DHT22;23709;48.078;11.684;2023-08-21T10:14:35;29.60;82.00
37874;DHT22;23709;48.078;11.684;2023-08-21T10:17:08;29.70;82.70
37874;DHT22;23709;48.078;11.684;2023-08-21T10:19:41;29.80;81.20
37874;DHT22;23709;48.078;11.684;2023-08-21T10:22:13;29.80;81.10
37874;DHT22;23709;48.078;11.684;2023-08-21T10:24:45;29.90;79.70
37874;DHT22;23709;48.078;11.684;2023-08-21T10:27:29;30.00;78.40
37874;DHT22;23709;48.078;11.684;2023-08-21T10:30:14;30.10;78.10
37874;DHT22;23709;48.078;11.684;2023-08-21T10:39:22;30.30;75.50
37874;DHT22;23709;48.078;11.684;2023-08-21T10:42:01;30.40;75.50
37874;DHT22;23709;48.078;11.684;2023-08-21T10:44:47;30.40;74.80
37874;DHT22;23709;48.078;11.684;2023-08-21T10:47:32;30.50;74.50
37874;DHT22;23709;48.078;11.684;2023-08-21T10:50:07;30.60;74.80
37874;DHT22;23709;48.078;11.684;2023-08-21T10:52:42;30.70;73.40
37874;DHT22;23709;48.078;11.684;2023-08-21T10:55:17;30.90;76.00
37874;DHT22;23709;48.078;11.684;2023-08-21T10:57:52;30.90;73.60
37874;DHT22;23709;48.078;11.684;2023-08-21T11:00:24;31.00;74.70
37874;DHT22;23709;48.078;11.684;2023-08-21T11:02:56;31.10;73.40
37874;DHT22;23709;48.078;11.684;2023-08-21T11:05:28;31.20;72.30
37874;DHT22;23709;48.078;11.684;2023-08-21T11:08:01;31.20;71.00
37874;DHT22;23709;48.078;11.684;2023-08-21T11:10:33;31.40;71.30
37874;DHT22;23709;48.078;11.684;2023-08-21T11:13:06;31.60;70.60
37874;DHT22;23709;48.078;11.684;2023-08-21T11:15:39;31.90;70.70
37874;DHT22;23709;48.078;11.684;2023-08-21T11:18:12;32.10;72.50
37874;DHT22;23709;48.078;11.684;2023-08-21T11:20:44;32.40;71.00
37874;DHT22;23709;48.078;11.684;2023-08-21T11:23:17;32.70;68.30
37874;DHT22;23709;48.078;11.684;2023-08-21T11:25:52;33.10;67.80
37874;DHT22;23709;48.078;11.684;2023-08-21T11:28:30;33.50;66.10
37874;DHT22;23709;48.078;11.684;2023-08-21T11:31:04;33.60;65.90
37874;DHT22;23709;48.078;11.684;2023-08-21T11:33:37;33.90;67.20
37874;DHT22;23709;48.078;11.684;2023-08-21T11:36:11;34.20;66.90
37874;DHT22;23709;48.078;11.684;2023-08-21T11:38:58;34.10;63.80
37874;DHT22;23709;48.078;11.684;2023-08-21T11:41:31;34.30;64.50
37874;DHT22;23709;48.078;11.684;2023-08-21T11:44:03;34.70;63.40
37874;DHT22;23709;48.078;11.684;2023-08-21T11:46:36;35.00;64.60
37874;DHT22;23709;48.078;11.684;2023-08-21T11:49:09;35.20;64.50
37874;DHT22;23709;48.078;11.684;2023-08-21T11:51:41;35.20;63.20
37874;DHT22;23709;48.078;11.684;2023-08-21T11:54:13;35.30;63.90
37874;DHT22;23709;48.078;11.684;2023-08-21T11:56:46;35.50;64.50
37874;DHT22;23709;48.078;11.684;2023-08-21T11:59:25;35.70;62.40
37874;DHT22;23709;48.078;11.684;2023-08-21T12:01:57;35.80;60.40
37874;DHT22;23709;48.078;11.684;2023-08-21T12:04:29;36.10;60.70
37874;DHT22;23709;48.078;11.684;2023-08-21T12:07:02;36.10;57.80
37874;DHT22;23709;48.078;11.684;2023-08-21T12:09:34;36.20;57.90
37874;DHT22;23709;48.078;11.684;2023-08-21T12:12:06;36.40;58.90
37874;DHT22;23709;48.078;11.684;2023-08-21T12:14:40;36.30;57.20
37874;DHT22;23709;48.078;11.684;2023-08-21T12:17:12;36.50;57.70
37874;DHT22;23709;48.078;11.684;2023-08-21T12:19:45;36.50;56.20
37874;DHT22;23709;48.078;11.684;2023-08-21T12:22:18;36.80;57.70
37874;DHT22;23709;48.078;11.684;2023-08-21T12:24:50;37.10;57.30
37874;DHT22;23709;48.078;11.684;2023-08-21T12:27:22;37.20;57.40
37874;DHT22;23709;48.078;11.684;2023-08-21T12:29:54;36.90;53.70
37874;DHT22;23709;48.078;11.684;2023-08-21T12:32:27;36.20;55.10
37874;DHT22;23709;48.078;11.684;2023-08-21T12:34:59;36.60;57.40
37874;DHT22;23709;48.078;11.684;2023-08-21T12:37:32;36.90;57.70
37874;DHT22;23709;48.078;11.684;2023-08-21T12:40:04;37.30;56.30
37874;DHT22;23709;48.078;11.684;2023-08-21T12:42:37;37.40;56.70
37874;DHT22;23709;48.078;11.684;2023-08-21T12:45:10;37.10;56.90
37874;DHT22;23709;48.078;11.684;2023-08-21T12:47:43;36.80;56.30
37874;DHT22;23709;48.078;11.684;2023-08-21T12:50:15;37.10;56.70
37874;DHT22;23709;48.078;11.684;2023-08-21T12:52:47;37.50;56.20
37874;DHT22;23709;48.078;11.684;2023-08-21T12:55:20;37.50;55.30
37874;DHT22;23709;48.078;11.684;2023-08-21T12:57:52;37.50;56.40
37874;DHT22;23709;48.078;11.684;2023-08-21T13:00:24;37.60;54.20
37874;DHT22;23709;48.078;11.684;2023-08-21T13:02:56;37.70;55.20
37874;DHT22;23709;48.078;11.684;2023-08-21T13:05:29;37.90;56.10
37874;DHT22;23709;48.078;11.684;2023-08-21T13:08:01;37.80;54.90
37874;DHT22;23709;48.078;11.684;2023-08-21T13:10:33;37.90;53.80
37874;DHT22;23709;48.078;11.684;2023-08-21T13:13:06;37.60;54.00
37874;DHT22;23709;48.078;11.684;2023-08-21T13:15:38;37.40;53.90
37874;DHT22;23709;48.078;11.684;2023-08-21T13:18:11;37.70;53.70
37874;DHT22;23709;48.078;11.684;2023-08-21T13:20:44;38.00;53.40
37874;DHT22;23709;48.078;11.684;2023-08-21T13:23:16;38.30;54.40
37874;DHT22;23709;48.078;11.684;2023-08-21T13:25:49;38.40;53.70
37874;DHT22;23709;48.078;11.684;2023-08-21T13:28:22;38.30;52.20
37874;DHT22;23709;48.078;11.684;2023-08-21T13:30:54;38.20;53.40
37874;DHT22;23709;48.078;11.684;2023-08-21T13:33:26;38.10;53.80
37874;DHT22;23709;48.078;11.684;2023-08-21T13:35:59;38.40;53.60
37874;DHT22;23709;48.078;11.684;2023-08-21T13:38:31;38.50;53.10
37874;DHT22;23709;48.078;11.684;2023-08-21T13:41:06;38.60;53.40
37874;DHT22;23709;48.078;11.684;2023-08-21T13:43:38;38.00;54.30
37874;DHT22;23709;48.078;11.684;2023-08-21T13:46:12;38.40;53.00
37874;DHT22;23709;48.078;11.684;2023-08-21T13:48:44;38.50;52.70
37874;DHT22;23709;48.078;11.684;2023-08-21T13:51:17;38.60;52.50
37874;DHT22;23709;48.078;11.684;2023-08-21T13:53:52;38.20;52.90
37874;DHT22;23709;48.078;11.684;2023-08-21T13:56:25;38.40;51.50
37874;DHT22;23709;48.078;11.684;2023-08-21T13:58:57;38.60;53.20
37874;DHT22;23709;48.078;11.684;2023-08-21T14:01:29;38.40;52.10
37874;DHT22;23709;48.078;11.684;2023-08-21T14:04:01;38.60;51.70
37874;DHT22;23709;48.078;11.684;2023-08-21T14:06:37;38.40;51.70
37874;DHT22;23709;48.078;11.684;2023-08-21T14:09:09;37.90;53.30
37874;DHT22;23709;48.078;11.684;2023-08-21T14:11:42;38.00;52.00
37874;DHT22;23709;48.078;11.684;2023-08-21T14:14:15;38.00;52.60
37874;DHT22;23709;48.078;11.684;2023-08-21T14:16:47;38.00;51.90
37874;DHT22;23709;48.078;11.684;2023-08-21T14:19:20;38.30;51.70
37874;DHT22;23709;48.078;11.684;2023-08-21T14:21:53;38.60;50.70
37874;DHT22;23709;48.078;11.684;2023-08-21T14:24:27;38.80;51.90
37874;DHT22;23709;48.078;11.684;2023-08-21T14:26:59;38.50;51.20
37874;DHT22;23709;48.078;11.684;2023-08-21T14:29:32;38.20;52.90
37874;DHT22;23709;48.078;11.684;2023-08-21T14:32:05;38.00;53.00
37874;DHT22;23709;48.078;11.684;2023-08-21T14:34:37;38.10;53.80
37874;DHT22;23709;48.078;11.684;2023-08-21T14:37:09;38.00;52.40
37874;DHT22;23709;48.078;11.684;2023-08-21T14:39:43;37.70;52.70
37874;DHT22;23709;48.078;11.684;2023-08-21T14:42:15;37.80;52.70
37874;DHT22;23709;48.078;11.684;2023-08-21T14:44:47;37.70;53.60
37874;DHT22;23709;48.078;11.684;2023-08-21T14:47:20;37.30;53.70
37874;DHT22;23709;48.078;11.684;2023-08-21T14:49:52;36.50;52.90
37874;DHT22;23709;48.078;11.684;2023-08-21T14:52:24;36.30;54.80
37874;DHT22;23709;48.078;11.684;2023-08-21T14:54:57;36.10;54.90
37874;DHT22;23709;48.078;11.684;2023-08-21T14:57:29;36.00;55.50
37874;DHT22;23709;48.078;11.684;2023-08-21T15:00:02;36.00;55.80
37874;DHT22;23709;48.078;11.684;2023-08-21T15:02:35;35.60;55.80
37874;DHT22;23709;48.078;11.684;2023-08-21T15:05:09;35.50;56.40
37874;DHT22;23709;48.078;11.684;2023-08-21T15:07:42;35.40;56.70
37874;DHT22;23709;48.078;11.684;2023-08-21T15:10:15;35.30;56.90
37874;DHT22;23709;48.078;11.684;2023-08-21T15:12:47;35.20;57.00
37874;DHT22;23709;48.078;11.684;2023-08-21T15:15:19;34.90;56.90
37874;DHT22;23709;48.078;11.684;2023-08-21T15:17:56;35.00;57.30
37874;DHT22;23709;48.078;11.684;2023-08-21T15:20:28;35.00;57.60
37874;DHT22;23709;48.078;11.684;2023-08-21T15:23:00;34.90;57.30
37874;DHT22;23709;48.078;11.684;2023-08-21T15:25:33;34.80;57.60
37874;DHT22;23709;48.078;11.684;2023-08-21T15:28:06;34.80;57.90
37874;DHT22;23709;48.078;11.684;2023-08-21T15:30:38;34.70;58.90
37874;DHT22;23709;48.078;11.684;2023-08-21T15:33:11;34.50;58.80
37874;DHT22;23709;48.078;11.684;2023-08-21T15:35:44;34.40;59.10
37874;DHT22;23709;48.078;11.684;2023-08-21T15:38:16;34.50;59.00
37874;DHT22;23709;48.078;11.684;2023-08-21T15:40:48;34.80;59.20
37874;DHT22;23709;48.078;11.684;2023-08-21T15:43:20;35.10;59.70
37874;DHT22;23709;48.078;11.684;2023-08-21T15:45:52;35.30;59.50
37874;DHT22;23709;48.078;11.684;2023-08-21T15:48:24;35.40;57.80
37874;DHT22;23709;48.078;11.684;2023-08-21T15:50:56;35.60;58.20
37874;DHT22;23709;48.078;11.684;2023-08-21T15:53:29;35.70;57.20
37874;DHT22;23709;48.078;11.684;2023-08-21T15:56:01;35.70;57.50
37874;DHT22;23709;48.078;11.684;2023-08-21T15:58:33;35.70;58.10
37874;DHT22;23709;48.078;11.684;2023-08-21T16:01:05;35.80;56.80
37874;DHT22;23709;48.078;11.684;2023-08-21T16:03:38;35.80;57.30
37874;DHT22;23709;48.078;11.684;2023-08-21T16:06:10;35.80;56.40